createdAt,value
2019-04-01T00:00:52.824Z,35.70
2019-04-01T00:05:44.229Z,34.70
2019-04-01T00:10:35.604Z,33.80
2019-04-01T00:15:26.983Z,34.00
2019-04-01T00:20:18.386Z,34.70
2019-04-01T00:25:09.791Z,35.80
2019-04-01T00:30:01.178Z,35.80
2019-04-01T00:34:52.616Z,34.60
2019-04-01T00:39:46.191Z,33.50
2019-04-01T00:44:40.430Z,34.30
2019-04-01T00:49:31.232Z,36.60
2019-04-01T00:54:24.896Z,36.00
2019-04-01T00:59:16.215Z,35.40
2019-04-01T01:04:10.246Z,37.80
2019-04-01T01:09:01.791Z,36.30
2019-04-01T01:13:53.084Z,36.60
2019-04-01T01:18:44.455Z,37.10
2019-04-01T01:23:35.839Z,36.20
2019-04-01T01:28:27.309Z,36.10
2019-04-01T01:33:18.602Z,37.50
2019-04-01T01:38:10.026Z,37.20
2019-04-01T01:43:01.498Z,35.50
2019-04-01T01:47:55.182Z,38.00
2019-04-01T01:52:48.797Z,35.60
2019-04-01T01:57:40.173Z,34.60
2019-04-01T02:02:36.130Z,36.80
2019-04-01T02:07:27.541Z,36.90
2019-04-01T02:12:18.920Z,37.70
2019-04-01T02:17:12.648Z,35.40
2019-04-01T02:22:04.071Z,40.30
2019-04-01T02:26:55.578Z,33.10
2019-04-01T02:31:46.890Z,32.50
2019-04-01T02:36:38.329Z,33.20
2019-04-01T02:41:29.745Z,33.80
2019-04-01T02:46:21.081Z,72.00
2019-04-01T02:51:12.466Z,31.60
2019-04-01T02:56:03.883Z,31.10
2019-04-01T03:00:55.217Z,33.20
2019-04-01T03:05:46.651Z,31.60
2019-04-01T03:10:37.974Z,33.60
2019-04-01T03:15:29.395Z,32.60
2019-04-01T03:20:20.737Z,33.80
2019-04-01T03:25:12.169Z,35.00
2019-04-01T03:30:03.541Z,33.60
2019-04-01T03:34:54.927Z,33.40
2019-04-01T03:39:46.239Z,33.90
2019-04-01T03:44:37.667Z,32.50
2019-04-01T03:49:29.057Z,32.30
2019-04-01T03:54:20.418Z,34.30
2019-04-01T03:59:11.937Z,34.50
2019-04-01T04:04:03.296Z,34.40
2019-04-01T04:08:54.682Z,31.80
2019-04-01T04:13:46.019Z,30.50
2019-04-01T04:18:37.438Z,30.60
2019-04-01T04:23:28.819Z,33.00
2019-04-01T04:28:20.210Z,32.30
2019-04-01T04:33:11.583Z,31.70
2019-04-01T04:38:02.976Z,30.80
2019-04-01T04:42:54.379Z,34.20
2019-04-01T04:47:45.818Z,37.60
2019-04-01T04:52:37.163Z,34.20
2019-04-01T04:57:28.684Z,34.60
2019-04-01T05:02:20.049Z,33.60
2019-04-01T05:07:11.491Z,34.80
2019-04-01T05:12:02.842Z,33.60
2019-04-01T05:16:54.247Z,32.50
2019-04-01T05:21:45.554Z,34.40
2019-04-01T05:26:36.973Z,32.20
2019-04-01T05:31:28.369Z,32.30
2019-04-01T05:36:19.759Z,33.50
2019-04-01T05:41:11.124Z,31.40
2019-04-01T05:46:02.456Z,32.60
2019-04-01T05:50:53.918Z,34.20
2019-04-01T05:55:45.329Z,33.60
2019-04-01T06:00:36.739Z,37.20
2019-04-01T06:05:28.238Z,33.70
2019-04-01T06:10:19.584Z,32.30
2019-04-01T06:15:11.249Z,33.20
2019-04-01T06:20:03.036Z,34.10
2019-04-01T06:24:54.468Z,35.20
2019-04-01T06:29:45.836Z,32.80
2019-04-01T06:34:37.220Z,33.50
2019-04-01T06:39:28.621Z,34.00
2019-04-01T06:44:19.980Z,36.10
2019-04-01T06:49:11.355Z,35.90
2019-04-01T06:54:02.723Z,36.70
2019-04-01T06:58:54.112Z,37.60
2019-04-01T07:03:45.451Z,37.10
2019-04-01T07:08:36.932Z,35.30
2019-04-01T07:13:28.257Z,35.90
2019-04-01T07:18:19.703Z,35.10
2019-04-01T07:23:11.007Z,36.20
2019-04-01T07:28:02.527Z,34.50
2019-04-01T07:32:54.187Z,39.50
2019-04-01T07:37:48.394Z,33.90
2019-04-01T07:42:39.766Z,36.70
2019-04-01T07:47:31.188Z,37.20
2019-04-01T07:52:22.627Z,38.00
2019-04-01T07:57:14.083Z,41.10
2019-04-01T08:02:05.385Z,36.80
2019-04-01T08:06:56.766Z,36.40
2019-04-01T08:11:49.966Z,36.00
2019-04-01T08:16:39.560Z,35.80
2019-04-01T08:21:30.934Z,36.20
2019-04-01T08:26:22.335Z,37.60
2019-04-01T08:31:13.678Z,32.40
2019-04-01T08:36:05.159Z,37.60
2019-04-01T08:40:56.465Z,34.50
2019-04-01T08:45:47.863Z,35.10
2019-04-01T08:50:39.257Z,34.70
2019-04-01T08:55:30.670Z,35.10
2019-04-01T09:00:21.959Z,34.10
2019-04-01T09:05:13.418Z,36.20
2019-04-01T09:10:04.826Z,34.10
2019-04-01T09:14:56.205Z,36.80
2019-04-01T09:19:47.678Z,36.20
2019-04-01T09:24:38.943Z,39.10
2019-04-01T09:29:30.375Z,35.80
2019-04-01T09:34:21.746Z,36.30
2019-04-01T09:39:13.190Z,35.50
2019-04-01T09:44:04.486Z,34.50
2019-04-01T09:48:55.928Z,32.90
2019-04-01T09:53:47.278Z,33.30
2019-04-01T09:58:38.755Z,34.90
2019-04-01T10:03:30.134Z,33.90
2019-04-01T10:08:21.563Z,34.10
2019-04-01T10:13:12.890Z,37.90
2019-04-01T10:18:04.309Z,36.10
2019-04-01T10:22:55.770Z,32.00
2019-04-01T10:27:47.075Z,33.20
2019-04-01T10:32:38.424Z,32.80
2019-04-01T10:37:29.792Z,34.90
2019-04-01T10:42:21.223Z,35.20
2019-04-01T10:47:12.658Z,37.70
2019-04-01T10:52:03.944Z,34.60
2019-04-01T10:56:55.392Z,32.30
2019-04-01T11:01:46.744Z,32.70
2019-04-01T11:06:38.098Z,32.40
2019-04-01T11:11:29.555Z,31.50
2019-04-01T11:16:20.925Z,64.40
2019-04-01T11:21:12.253Z,34.10
2019-04-01T11:26:03.663Z,32.60
2019-04-01T11:30:55.100Z,33.60
2019-04-01T11:35:46.470Z,33.70
2019-04-01T11:40:38.835Z,31.80
2019-04-01T11:45:29.268Z,32.10
2019-04-01T11:50:20.671Z,31.80
2019-04-01T11:55:11.960Z,30.40
2019-04-01T12:00:03.352Z,30.90
2019-04-01T12:04:54.785Z,31.40
2019-04-01T12:09:47.263Z,30.50
2019-04-01T12:14:37.597Z,30.50
2019-04-01T12:19:28.929Z,28.40
2019-04-01T12:24:20.285Z,31.60
2019-04-01T12:29:12.101Z,28.10
2019-04-01T12:34:03.109Z,27.80
2019-04-01T12:38:54.467Z,27.20
2019-04-01T12:43:45.878Z,24.50
2019-04-01T12:48:37.313Z,25.60
2019-04-01T12:53:28.650Z,27.40
2019-04-01T12:58:20.776Z,27.50
2019-04-01T13:03:11.438Z,24.70
2019-04-01T13:08:02.822Z,26.90
2019-04-01T13:12:54.506Z,24.70
2019-04-01T13:17:45.586Z,24.70
2019-04-01T13:22:37.946Z,24.00
2019-04-01T13:27:29.017Z,28.70
2019-04-01T13:32:20.269Z,23.70
2019-04-01T13:37:13.396Z,24.00
2019-04-01T13:42:04.754Z,23.30
2019-04-01T13:46:56.208Z,23.00
2019-04-01T13:51:47.555Z,23.70
2019-04-01T13:56:38.990Z,21.20
2019-04-01T14:01:30.356Z,21.20
2019-04-01T14:06:22.545Z,23.90
2019-04-01T14:11:13.161Z,23.30
2019-04-01T14:16:04.538Z,21.60
2019-04-01T14:21:14.847Z,22.40
2019-04-01T14:25:51.911Z,23.50
2019-04-01T14:30:43.375Z,23.90
2019-04-01T14:35:36.943Z,23.50
2019-04-01T14:40:28.350Z,24.70
2019-04-01T14:45:19.716Z,22.60
2019-04-01T14:50:11.175Z,20.30
2019-04-01T14:55:02.903Z,22.60
2019-04-01T14:59:56.200Z,20.50
2019-04-01T15:04:45.323Z,20.70
2019-04-01T15:09:36.739Z,20.70
2019-04-01T15:14:28.080Z,22.90
2019-04-01T15:19:19.495Z,19.70
2019-04-01T15:24:10.846Z,20.90
2019-04-01T15:29:02.256Z,21.00
2019-04-01T15:33:53.657Z,19.50
2019-04-01T15:38:45.006Z,20.20
2019-04-01T15:43:36.394Z,21.00
2019-04-01T15:48:27.829Z,20.60
2019-04-01T15:53:19.254Z,19.70
2019-04-01T15:58:10.589Z,19.60
2019-04-01T16:03:02.106Z,26.20
2019-04-01T16:07:53.395Z,20.30
2019-04-01T16:12:45.275Z,19.30
2019-04-01T16:17:36.199Z,19.60
2019-04-01T16:22:27.590Z,20.80
2019-04-01T16:27:18.983Z,17.90
2019-04-01T16:32:10.380Z,19.20
2019-04-01T16:37:01.715Z,17.40
2019-04-01T16:41:53.167Z,19.90
2019-04-01T16:46:44.563Z,18.40
2019-04-01T16:51:35.943Z,19.80
2019-04-01T16:56:27.314Z,19.40
2019-04-01T17:01:18.817Z,21.00
2019-04-01T17:06:10.093Z,18.80
2019-04-01T17:11:02.157Z,17.90
2019-04-01T17:15:52.891Z,19.20
2019-04-01T17:20:44.320Z,18.80
2019-04-01T17:25:35.687Z,18.90
2019-04-01T17:30:29.377Z,19.60
2019-04-01T17:35:20.710Z,20.10
2019-04-01T17:40:12.095Z,18.20
2019-04-01T17:45:03.508Z,20.40
2019-04-01T17:49:54.986Z,21.30
2019-04-01T17:54:47.907Z,19.30
2019-04-01T17:59:37.745Z,20.50
2019-04-01T18:04:31.493Z,19.80
2019-04-01T18:09:22.886Z,21.70
2019-04-01T18:14:14.201Z,20.90
2019-04-01T18:19:06.294Z,19.20
2019-04-01T18:23:56.930Z,19.00
2019-04-01T18:28:48.374Z,19.60
2019-04-01T18:33:39.798Z,19.40
2019-04-01T18:38:31.215Z,18.00
2019-04-01T18:43:22.621Z,17.40
2019-04-01T18:48:14.688Z,17.00
2019-04-01T18:53:05.339Z,21.20
2019-04-01T18:57:56.818Z,17.10
2019-04-01T19:02:48.162Z,17.20
2019-04-01T19:07:39.577Z,15.70
2019-04-01T19:12:30.944Z,15.10
2019-04-01T19:17:22.385Z,17.30
2019-04-01T19:22:13.731Z,16.30
2019-04-01T19:27:05.450Z,16.10
2019-04-01T19:31:56.536Z,17.40
2019-04-01T19:36:48.021Z,17.40
2019-04-01T19:41:39.270Z,16.40
2019-04-01T19:46:30.702Z,16.70
2019-04-01T19:51:22.132Z,17.00
2019-04-01T19:56:13.543Z,17.50
2019-04-01T20:01:04.927Z,18.00
2019-04-01T20:05:56.259Z,17.00
2019-04-01T20:10:47.752Z,18.40
2019-04-01T20:15:39.216Z,16.50
2019-04-01T20:20:31.229Z,18.70
2019-04-01T20:25:21.939Z,17.70
2019-04-01T20:30:13.334Z,16.90
2019-04-01T20:35:04.716Z,17.60
2019-04-01T20:39:56.120Z,17.20
2019-04-01T20:44:47.408Z,18.90
2019-04-01T20:49:38.873Z,18.50
2019-04-01T20:54:30.183Z,18.90
2019-04-01T20:59:21.605Z,19.80
2019-04-01T21:04:12.966Z,20.70
2019-04-01T21:09:04.420Z,18.30
2019-04-01T21:13:55.724Z,17.80
2019-04-01T21:18:47.981Z,20.80
2019-04-01T21:23:38.608Z,19.00
2019-04-01T21:28:30.136Z,18.10
2019-04-01T21:33:21.443Z,18.30
2019-04-01T21:38:12.891Z,18.40
2019-04-01T21:43:04.260Z,17.20
2019-04-01T21:47:55.697Z,17.00
2019-04-01T21:52:47.035Z,18.20
2019-04-01T21:57:38.456Z,19.20
2019-04-01T22:02:35.683Z,19.20
2019-04-01T22:07:21.158Z,20.00
2019-04-01T22:12:12.569Z,20.10
2019-04-01T22:17:04.023Z,18.90
2019-04-01T22:21:55.348Z,18.40
2019-04-01T22:26:46.785Z,17.00
2019-04-01T22:31:38.113Z,18.40
2019-04-01T22:36:31.098Z,18.90
2019-04-01T22:41:20.919Z,17.30
2019-04-01T22:46:12.225Z,95.90
2019-04-01T22:51:03.648Z,17.50
2019-04-01T22:55:55.055Z,18.50
2019-04-01T23:00:47.158Z,18.60
2019-04-01T23:05:37.809Z,18.20
2019-04-01T23:10:29.200Z,18.20
2019-04-01T23:15:20.572Z,19.00
2019-04-01T23:20:11.921Z,19.50
2019-04-01T23:25:03.303Z,17.40
2019-04-01T23:29:54.818Z,18.70
2019-04-01T23:34:46.171Z,17.90
2019-04-01T23:39:37.589Z,18.30
2019-04-01T23:44:28.933Z,20.00
2019-04-01T23:49:22.621Z,21.50
2019-04-01T23:54:13.964Z,18.60
2019-04-01T23:59:05.472Z,20.70
